createdAt,value
2018-10-17T04:01:24.435Z,84.70
2018-10-17T04:03:52.633Z,85.00
2018-10-17T04:06:21.211Z,85.10
2018-10-17T04:08:49.331Z,84.80
2018-10-17T04:11:17.524Z,84.80
2018-10-17T04:13:45.599Z,84.70
2018-10-17T04:16:13.747Z,85.20
2018-10-17T04:18:41.866Z,84.80
2018-10-17T04:21:09.992Z,85.50
2018-10-17T04:23:38.134Z,86.80
2018-10-17T04:26:06.276Z,88.10
2018-10-17T04:28:34.380Z,88.60
2018-10-17T04:31:02.538Z,89.10
2018-10-17T04:33:30.643Z,88.80
2018-10-17T04:35:58.797Z,88.30
2018-10-17T04:38:26.904Z,87.60
2018-10-17T04:40:55.032Z,87.00
2018-10-17T04:43:23.148Z,86.40
2018-10-17T04:45:51.271Z,86.00
2018-10-17T04:48:19.396Z,85.70
2018-10-17T04:50:47.538Z,85.50
2018-10-17T04:53:15.706Z,84.80
2018-10-17T04:55:43.786Z,84.50
2018-10-17T04:58:11.899Z,84.70
2018-10-17T05:00:40.005Z,84.30
2018-10-17T05:03:08.138Z,84.90
2018-10-17T05:05:36.276Z,85.60
2018-10-17T05:08:04.496Z,85.50
2018-10-17T05:10:32.656Z,86.10
2018-10-17T05:13:00.807Z,86.60
2018-10-17T05:15:29.305Z,86.70
2018-10-17T05:17:57.449Z,86.30
2018-10-17T05:20:25.655Z,85.80
2018-10-17T05:22:53.843Z,86.10
2018-10-17T05:25:21.916Z,86.70
2018-10-17T05:27:50.024Z,87.20
2018-10-17T05:30:18.148Z,87.40
2018-10-17T05:32:46.358Z,87.80
2018-10-17T05:35:14.601Z,87.90
2018-10-17T05:37:42.737Z,88.10
2018-10-17T05:40:12.164Z,88.20
2018-10-17T05:42:40.312Z,88.30
2018-10-17T05:45:08.716Z,88.80
2018-10-17T05:47:36.849Z,88.90
2018-10-17T05:50:05.012Z,88.30
2018-10-17T05:52:33.146Z,87.70
2018-10-17T05:55:01.318Z,87.10
2018-10-17T05:57:29.433Z,86.90
2018-10-17T05:59:57.568Z,86.90
2018-10-17T06:02:28.983Z,86.70
2018-10-17T06:04:57.088Z,86.30
2018-10-17T06:07:25.215Z,86.00
2018-10-17T06:09:53.350Z,85.80
2018-10-17T06:12:21.484Z,85.90
2018-10-17T06:14:49.605Z,85.60
2018-10-17T06:17:17.821Z,85.30
2018-10-17T06:19:45.939Z,85.10
2018-10-17T06:22:14.080Z,85.20
2018-10-17T06:24:42.220Z,85.10
2018-10-17T06:27:10.383Z,85.10
2018-10-17T06:29:38.503Z,85.10
2018-10-17T06:32:06.661Z,85.20
2018-10-17T06:34:34.840Z,85.30
2018-10-17T06:37:02.982Z,85.00
2018-10-17T06:39:31.063Z,85.10
2018-10-17T06:41:59.194Z,84.90
2018-10-17T06:44:27.342Z,84.90
2018-10-17T06:46:55.532Z,85.00
2018-10-17T06:49:23.606Z,85.70
2018-10-17T06:51:51.713Z,85.30
2018-10-17T06:54:19.950Z,85.60
2018-10-17T06:56:48.020Z,85.80
2018-10-17T06:59:16.223Z,85.90
2018-10-17T07:01:44.370Z,86.30
2018-10-17T07:04:12.436Z,86.40
2018-10-17T07:06:40.608Z,86.60
2018-10-17T07:09:09.436Z,87.40
2018-10-17T07:11:37.625Z,87.50
2018-10-17T07:14:05.954Z,87.20
2018-10-17T07:16:34.108Z,87.30
2018-10-17T07:19:02.819Z,87.30
2018-10-17T07:21:30.899Z,87.60
2018-10-17T07:23:59.016Z,87.60
2018-10-17T07:26:27.146Z,87.50
2018-10-17T07:28:55.601Z,87.50
2018-10-17T07:31:23.668Z,87.30
2018-10-17T07:33:51.867Z,87.50
2018-10-17T07:36:20.082Z,87.70
2018-10-17T07:38:48.134Z,86.90
2018-10-17T07:41:16.363Z,86.80
2018-10-17T07:43:44.477Z,86.60
2018-10-17T07:46:12.595Z,86.40
2018-10-17T07:48:40.732Z,86.40
2018-10-17T07:51:08.835Z,86.00
2018-10-17T07:53:37.082Z,87.00
2018-10-17T07:56:05.256Z,87.00
2018-10-17T07:58:33.408Z,87.00
2018-10-17T08:01:01.561Z,87.20
2018-10-17T08:03:29.694Z,87.20
2018-10-17T08:05:57.850Z,86.80
2018-10-17T08:08:25.964Z,86.50
2018-10-17T08:10:54.086Z,85.90
2018-10-17T08:13:22.231Z,85.50
2018-10-17T08:15:50.389Z,87.20
2018-10-17T08:18:18.574Z,86.70
2018-10-17T08:20:46.637Z,85.40
2018-10-17T08:23:14.757Z,84.80
2018-10-17T08:25:42.868Z,84.50
2018-10-17T08:28:11.008Z,86.60
2018-10-17T08:30:39.133Z,86.60
2018-10-17T08:33:07.295Z,85.70
2018-10-17T08:35:35.566Z,84.20
2018-10-17T08:38:03.597Z,83.10
2018-10-17T08:40:31.703Z,83.10
2018-10-17T08:42:59.848Z,85.30
2018-10-17T08:45:28.008Z,86.20
2018-10-17T08:47:56.152Z,84.90
2018-10-17T08:50:24.291Z,83.90
2018-10-17T08:52:52.419Z,84.80
2018-10-17T08:55:20.563Z,86.00
2018-10-17T08:57:48.762Z,83.10
2018-10-17T09:00:16.914Z,83.80
2018-10-17T09:02:45.088Z,81.40
2018-10-17T09:05:13.444Z,83.10
2018-10-17T09:07:41.686Z,79.00
2018-10-17T09:10:09.787Z,77.50
2018-10-17T09:12:37.939Z,76.90
2018-10-17T09:15:06.836Z,75.70
2018-10-17T09:17:35.140Z,76.30
2018-10-17T09:20:03.594Z,75.10
2018-10-17T09:22:31.559Z,75.30
2018-10-17T09:24:59.769Z,74.40
2018-10-17T09:27:27.907Z,74.60
2018-10-17T09:29:56.129Z,74.50
2018-10-17T09:32:24.220Z,74.50
2018-10-17T09:34:52.857Z,74.40
2018-10-17T09:37:24.072Z,74.60
2018-10-17T09:39:52.247Z,74.20
2018-10-17T09:42:20.458Z,73.00
2018-10-17T09:44:50.099Z,73.70
2018-10-17T09:47:24.355Z,71.50
2018-10-17T09:49:52.520Z,70.30
2018-10-17T09:52:20.660Z,66.60
2018-10-17T09:54:48.818Z,66.10
2018-10-17T09:57:16.991Z,66.30
2018-10-17T09:59:45.144Z,66.40
2018-10-17T10:02:13.358Z,64.70
2018-10-17T10:04:41.423Z,63.70
2018-10-17T10:07:09.570Z,62.10
2018-10-17T10:09:37.687Z,62.40
2018-10-17T10:12:05.947Z,59.80
2018-10-17T10:14:34.050Z,58.50
2018-10-17T10:17:02.266Z,58.70
2018-10-17T10:19:30.381Z,62.00
2018-10-17T10:21:58.526Z,61.10
2018-10-17T10:24:26.684Z,58.40
2018-10-17T10:26:54.832Z,57.90
2018-10-17T10:29:23.569Z,58.20
2018-10-17T10:31:51.680Z,59.30
2018-10-17T10:34:19.875Z,57.90
2018-10-17T10:36:47.929Z,56.90
2018-10-17T10:39:16.070Z,57.60
2018-10-17T10:41:44.222Z,55.40
2018-10-17T10:44:12.445Z,55.00
2018-10-17T10:46:40.487Z,56.90
2018-10-17T10:49:09.701Z,55.00
2018-10-17T10:51:37.904Z,53.50
2018-10-17T10:54:05.971Z,54.80
2018-10-17T10:56:34.191Z,55.30
2018-10-17T10:59:02.413Z,53.50
2018-10-17T11:01:30.475Z,53.10
2018-10-17T11:03:58.613Z,54.20
2018-10-17T11:06:26.772Z,53.20
2018-10-17T11:08:54.919Z,54.00
2018-10-17T11:11:23.055Z,51.90
2018-10-17T11:13:51.212Z,52.60
2018-10-17T11:16:19.319Z,54.80
2018-10-17T11:18:47.431Z,53.40
2018-10-17T11:21:15.592Z,51.20
2018-10-17T11:23:43.703Z,53.10
2018-10-17T11:26:11.813Z,52.80
2018-10-17T11:28:39.970Z,51.00
2018-10-17T11:31:08.114Z,52.40
2018-10-17T11:33:36.389Z,49.30
2018-10-17T11:36:04.558Z,50.00
2018-10-17T11:38:32.667Z,50.30
2018-10-17T11:41:00.865Z,49.80
2018-10-17T11:43:28.976Z,48.10
2018-10-17T11:45:57.121Z,46.10
2018-10-17T11:48:25.254Z,45.10
2018-10-17T11:50:54.459Z,45.70
2018-10-17T11:53:22.572Z,47.60
2018-10-17T11:55:50.753Z,45.60
2018-10-17T11:58:18.927Z,44.70
2018-10-17T12:00:47.092Z,42.80
2018-10-17T12:03:15.283Z,45.70
2018-10-17T12:05:46.341Z,46.00
2018-10-17T12:08:16.670Z,44.00
2018-10-17T12:10:51.933Z,50.00
2018-10-17T12:13:20.079Z,47.90
2018-10-17T12:15:48.233Z,43.00
2018-10-17T12:18:16.422Z,45.40
2018-10-17T12:20:44.596Z,47.60
2018-10-17T12:23:12.833Z,42.10
2018-10-17T12:25:41.543Z,40.90
2018-10-17T12:28:09.779Z,43.10
2018-10-17T12:30:37.906Z,41.20
2018-10-17T12:33:06.139Z,44.20
2018-10-17T12:35:34.235Z,44.80
2018-10-17T12:38:02.699Z,43.20
2018-10-17T12:40:30.996Z,41.80
2018-10-17T12:42:59.004Z,37.90
2018-10-17T12:45:27.213Z,41.30
2018-10-17T12:47:55.357Z,40.40
2018-10-17T12:50:24.619Z,39.40
2018-10-17T12:52:52.759Z,40.50
2018-10-17T12:55:20.836Z,41.40
2018-10-17T12:57:48.948Z,40.20
2018-10-17T13:00:17.059Z,41.10
2018-10-17T13:02:45.188Z,42.40
2018-10-17T13:05:13.367Z,41.00
2018-10-17T13:07:41.456Z,41.00
2018-10-17T13:10:10.464Z,42.70
2018-10-17T13:12:38.603Z,42.20
2018-10-17T13:15:08.022Z,42.30
2018-10-17T13:17:36.203Z,42.80
2018-10-17T13:20:04.324Z,43.90
2018-10-17T13:22:32.464Z,43.70
2018-10-17T13:25:00.588Z,43.70
2018-10-17T13:27:28.735Z,45.00
2018-10-17T13:29:56.854Z,44.60
2018-10-17T13:32:24.979Z,44.10
2018-10-17T13:34:53.125Z,45.20
2018-10-17T13:37:22.138Z,45.60
2018-10-17T13:39:50.278Z,44.60
2018-10-17T13:42:18.526Z,45.90
2018-10-17T13:44:46.605Z,44.90
2018-10-17T13:47:14.870Z,44.20
2018-10-17T13:49:42.955Z,45.00
2018-10-17T13:52:11.158Z,45.70
2018-10-17T13:54:39.321Z,45.30
2018-10-17T13:57:07.438Z,47.10
2018-10-17T13:59:35.597Z,46.10
2018-10-17T14:02:03.723Z,48.70
2018-10-17T14:04:31.855Z,48.80
2018-10-17T14:06:59.991Z,48.00
2018-10-17T14:09:28.131Z,49.20
2018-10-17T14:11:56.265Z,47.30
2018-10-17T14:14:24.392Z,46.90
2018-10-17T14:16:52.533Z,48.40
2018-10-17T14:19:20.640Z,48.60
2018-10-17T14:21:48.848Z,45.70
2018-10-17T14:24:17.019Z,46.60
2018-10-17T14:26:45.124Z,48.00
2018-10-17T14:29:13.232Z,45.90
2018-10-17T14:31:41.395Z,45.40
2018-10-17T14:34:09.513Z,46.00
2018-10-17T14:36:37.620Z,45.10
2018-10-17T14:39:08.652Z,47.10
2018-10-17T14:41:36.799Z,44.60
2018-10-17T14:44:04.908Z,45.20
2018-10-17T14:46:33.023Z,43.40
2018-10-17T14:49:01.238Z,41.70
2018-10-17T14:51:29.383Z,42.20
2018-10-17T14:53:57.544Z,41.10
2018-10-17T14:56:25.664Z,40.50
2018-10-17T14:58:53.818Z,40.30
2018-10-17T15:01:21.977Z,40.60
2018-10-17T15:03:50.093Z,41.40
2018-10-17T15:06:18.244Z,41.50
2018-10-17T15:08:46.385Z,41.80
2018-10-17T15:11:14.643Z,42.90
2018-10-17T15:13:42.712Z,44.30
2018-10-17T15:16:10.859Z,45.70
2018-10-17T15:18:39.047Z,45.90
2018-10-17T15:21:07.247Z,45.70
2018-10-17T15:23:35.339Z,46.60
2018-10-17T15:26:03.494Z,46.60
2018-10-17T15:28:31.691Z,47.20
2018-10-17T15:30:59.901Z,47.80
2018-10-17T15:33:28.065Z,49.40
2018-10-17T15:35:56.198Z,48.80
2018-10-17T15:38:24.349Z,50.20
2018-10-17T15:40:52.503Z,51.00
2018-10-17T15:43:20.716Z,51.30
2018-10-17T15:45:48.790Z,51.90
2018-10-17T15:48:23.696Z,52.10
2018-10-17T15:50:51.849Z,52.80
2018-10-17T15:53:20.071Z,53.10
2018-10-17T15:55:48.145Z,54.30
2018-10-17T15:58:16.303Z,54.90
2018-10-17T16:00:44.448Z,55.10
2018-10-17T16:03:12.564Z,55.20
2018-10-17T16:05:40.691Z,55.60
2018-10-17T16:08:08.882Z,56.20
2018-10-17T16:10:41.618Z,56.20
2018-10-17T16:13:09.801Z,56.40
2018-10-17T16:15:40.851Z,56.60
2018-10-17T16:18:10.653Z,56.50
2018-10-17T16:20:38.724Z,56.40
2018-10-17T16:23:07.085Z,56.90
2018-10-17T16:25:35.146Z,57.90
2018-10-17T16:28:03.294Z,58.00
2018-10-17T16:30:31.476Z,58.50
2018-10-17T16:32:59.664Z,58.80
2018-10-17T16:35:28.516Z,58.80
2018-10-17T16:37:56.711Z,59.00
2018-10-17T16:40:24.840Z,60.20
2018-10-17T16:42:52.991Z,60.80
2018-10-17T16:45:21.126Z,61.20
2018-10-17T16:47:49.260Z,61.30
2018-10-17T16:50:17.463Z,61.80
2018-10-17T16:52:46.386Z,62.10
2018-10-17T16:55:16.011Z,62.30
2018-10-17T16:57:44.141Z,62.30
2018-10-17T17:00:12.991Z,63.30
2018-10-17T17:02:41.057Z,63.40
2018-10-17T17:05:12.447Z,63.10
2018-10-17T17:07:41.125Z,63.40
2018-10-17T17:10:10.157Z,63.80
2018-10-17T17:12:38.496Z,64.10
2018-10-17T17:15:07.145Z,64.40
2018-10-17T17:17:35.232Z,64.70
2018-10-17T17:20:03.401Z,64.90
2018-10-17T17:22:31.621Z,65.00
2018-10-17T17:24:59.689Z,65.00
2018-10-17T17:27:27.853Z,65.20
2018-10-17T17:29:56.071Z,65.10
2018-10-17T17:32:24.183Z,65.50
2018-10-17T17:34:52.471Z,65.60
2018-10-17T17:37:20.739Z,65.80
2018-10-17T17:39:48.864Z,66.00
2018-10-17T17:42:16.996Z,66.60
2018-10-17T17:44:45.140Z,66.80
2018-10-17T17:47:13.283Z,67.40
2018-10-17T17:49:41.694Z,67.10
2018-10-17T17:52:09.883Z,67.70
2018-10-17T17:54:37.947Z,67.60
2018-10-17T17:57:06.683Z,67.70
2018-10-17T17:59:34.802Z,68.20
2018-10-17T18:02:03.821Z,68.70
2018-10-17T18:04:35.152Z,69.00
2018-10-17T18:07:03.292Z,69.30
2018-10-17T18:09:31.419Z,69.40
2018-10-17T18:11:59.516Z,69.80
2018-10-17T18:14:27.805Z,69.90
2018-10-17T18:16:56.018Z,70.20
2018-10-17T18:19:24.176Z,70.70
2018-10-17T18:21:52.406Z,71.80
2018-10-17T18:24:20.483Z,71.20
2018-10-17T18:26:48.755Z,71.00
2018-10-17T18:29:17.018Z,71.20
2018-10-17T18:31:45.234Z,71.40
2018-10-17T18:34:13.554Z,71.20
2018-10-17T18:36:41.677Z,71.20
2018-10-17T18:39:09.919Z,70.90
2018-10-17T18:41:41.677Z,71.40
2018-10-17T18:44:09.897Z,71.40
2018-10-17T18:46:43.857Z,71.90
2018-10-17T18:49:13.041Z,71.30
2018-10-17T18:51:42.383Z,72.00
2018-10-17T18:54:10.654Z,72.00
2018-10-17T18:56:38.844Z,72.00
2018-10-17T18:59:07.557Z,71.90
2018-10-17T19:01:35.754Z,72.40
2018-10-17T19:04:07.746Z,72.60
2018-10-17T19:06:35.879Z,72.80
2018-10-17T19:09:07.749Z,72.40
2018-10-17T19:11:35.812Z,73.20
2018-10-17T19:14:05.160Z,73.50
2018-10-17T19:16:34.198Z,73.90
2018-10-17T19:19:04.180Z,73.90
2018-10-17T19:21:36.813Z,73.90
2018-10-17T19:24:08.387Z,73.60
2018-10-17T19:26:38.158Z,73.80
2018-10-17T19:29:06.414Z,73.70
2018-10-17T19:31:37.723Z,74.30
2018-10-17T19:34:08.740Z,74.00
2018-10-17T19:36:38.981Z,73.90
2018-10-17T19:39:08.840Z,74.00
2018-10-17T19:41:37.093Z,74.90
2018-10-17T19:44:07.706Z,74.50
2018-10-17T19:46:38.017Z,74.60
2018-10-17T19:49:09.626Z,74.80
2018-10-17T19:51:37.858Z,74.70
2018-10-17T19:56:48.031Z,75.70
2018-10-17T19:59:17.120Z,75.50
2018-10-17T20:01:45.372Z,75.70
2018-10-17T20:04:14.125Z,75.80
2018-10-17T20:06:44.353Z,75.70
2018-10-17T20:09:12.869Z,75.60
2018-10-17T20:11:40.980Z,76.10
2018-10-17T20:14:09.697Z,75.20
2018-10-17T20:16:37.897Z,75.60
2018-10-17T20:19:07.155Z,75.70
2018-10-17T20:21:35.328Z,76.10
2018-10-17T20:24:03.501Z,76.20
2018-10-17T20:26:31.726Z,76.30
2018-10-17T20:29:01.289Z,76.10
2018-10-17T20:31:29.514Z,76.00
2018-10-17T20:33:57.714Z,75.50
2018-10-17T20:36:26.492Z,75.70
2018-10-17T20:38:56.243Z,75.50
2018-10-17T20:41:24.504Z,75.80
2018-10-17T20:43:52.784Z,76.30
2018-10-17T20:46:21.082Z,76.20
2018-10-17T20:48:49.191Z,76.40
2018-10-17T20:51:17.329Z,77.10
2018-10-17T20:53:45.708Z,77.30
2018-10-17T20:56:14.105Z,77.10
2018-10-17T20:58:42.562Z,77.20
